Time;durP1;ratioP1;P1;durP2;ratioP2;P2;SDS_P1;SDS_P2;PMS_P1;PMS_P2;Temp;Humidity;BMP_temperature;BMP_pressure;BME280_temperature;BME280_humidity;BME280_pressure;Samples;Min_cycle;Max_cycle;Signal;HPM_P1;HPM_P2
2022/07/03 00:01:42;;;;;;;3.55;1.30;;;15.60;99.90;;;;;;4993279;28;20085;-54
2022/07/03 00:04:07;;;;;;;3.30;1.20;;;15.70;99.90;;;;;;4987456;28;20050;-41
2022/07/03 00:06:33;;;;;;;2.28;0.90;;;15.60;99.90;;;;;;4991992;28;20093;-53
2022/07/03 00:09:02;;;;;;;5.55;1.35;;;15.70;99.80;;;;;;4993258;28;20034;-50
2022/07/03 00:11:27;;;;;;;2.90;1.20;;;15.70;99.90;;;;;;4978951;28;20030;-53
2022/07/03 00:13:53;;;;;;;1.90;0.90;;;15.70;99.90;;;;;;4993353;28;20014;-57
2022/07/03 00:16:19;;;;;;;2.63;0.93;;;15.70;99.90;;;;;;4993110;28;20489;-49
2022/07/03 00:18:45;;;;;;;1.88;0.68;;;15.70;99.90;;;;;;4993217;28;20015;-55
2022/07/03 00:21:14;;;;;;;5.38;1.00;;;15.70;99.80;;;;;;4992952;28;20030;-49
2022/07/03 00:23:52;;;;;;;2.05;0.93;;;15.70;99.90;;;;;;4992701;28;20397;-53
2022/07/03 00:26:20;;;;;;;2.70;1.00;;;15.70;99.90;;;;;;4992777;28;20120;-54
2022/07/03 00:28:46;;;;;;;2.70;1.13;;;15.70;99.90;;;;;;4992377;28;20038;-49
2022/07/03 00:31:13;;;;;;;3.22;1.38;;;15.80;99.90;;;;;;4992818;28;20057;-43
2022/07/03 00:33:40;;;;;;;3.20;1.33;;;15.70;99.90;;;;;;4983101;28;20093;-54
2022/07/03 00:36:07;;;;;;;2.83;1.00;;;15.70;99.90;;;;;;4993115;28;20042;-50
2022/07/03 00:38:33;;;;;;;3.65;1.10;;;15.70;99.90;;;;;;4992570;28;20046;-52
2022/07/03 00:41:01;;;;;;;2.22;1.02;;;15.70;99.90;;;;;;4977345;28;20030;-51
2022/07/03 00:43:26;;;;;;;4.05;1.40;;;15.70;99.90;;;;;;4992182;28;20034;-48
2022/07/03 00:45:53;;;;;;;3.08;1.00;;;15.70;99.90;;;;;;4975154;28;20030;-57
2022/07/03 00:48:20;;;;;;;4.30;1.10;;;15.70;99.90;;;;;;4992454;28;20433;-52
2022/07/03 00:50:52;;;;;;;2.25;1.15;;;15.60;99.90;;;;;;4985685;28;20026;-52
2022/07/03 00:53:39;;;;;;;3.08;1.13;;;15.60;99.90;;;;;;4992387;28;20136;-46
2022/07/03 00:56:05;;;;;;;5.40;1.10;;;15.60;99.90;;;;;;4992228;28;20026;-51
2022/07/03 00:58:34;;;;;;;3.40;1.13;;;15.50;99.90;;;;;;4992085;28;20026;-45
2022/07/03 01:01:00;;;;;;;2.53;0.98;;;15.40;99.90;;;;;;4992147;28;20030;-53
2022/07/03 01:03:27;;;;;;;3.45;1.10;;;15.20;99.90;;;;;;4980604;28;20034;-52
2022/07/03 01:05:55;;;;;;;2.63;1.08;;;15.20;99.90;;;;;;4972642;28;20066;-51
2022/07/03 01:08:48;;;;;;;3.92;1.00;;;15.10;99.90;;;;;;4972599;28;20103;-52
2022/07/03 01:11:26;;;;;;;1.95;1.08;;;15.10;99.90;;;;;;4969358;28;20556;-46
2022/07/03 01:14:08;;;;;;;2.33;0.98;;;15.00;99.90;;;;;;4972426;28;20478;-50
2022/07/03 01:16:40;;;;;;;2.30;1.15;;;15.00;99.90;;;;;;4972357;28;20043;-51
2022/07/03 01:19:37;;;;;;;5.32;1.40;;;14.90;99.90;;;;;;4972718;28;20105;-53
2022/07/03 01:22:12;;;;;;;2.30;1.10;;;14.80;99.90;;;;;;4961703;28;20070;-47
2022/07/03 01:24:44;;;;;;;2.15;1.08;;;14.80;99.90;;;;;;4970939;28;20462;-57
2022/07/03 01:27:32;;;;;;;2.45;1.08;;;14.70;99.90;;;;;;4972224;28;20026;-57
2022/07/03 01:30:11;;;;;;;5.78;1.40;;;14.60;99.90;;;;;;4972305;28;20038;-49
2022/07/03 01:32:50;;;;;;;1.85;1.00;;;14.50;99.90;;;;;;4972348;28;20070;-57
2022/07/03 01:35:22;;;;;;;2.78;1.38;;;14.50;99.90;;;;;;4985185;28;20033;-52
2022/07/03 01:37:50;;;;;;;2.08;1.10;;;14.40;99.90;;;;;;4991753;28;20034;-51
2022/07/03 01:40:17;;;;;;;2.85;1.05;;;14.40;99.90;;;;;;4981548;28;20081;-54
2022/07/03 01:42:45;;;;;;;2.28;1.10;;;14.30;99.90;;;;;;4981224;28;20029;-58
2022/07/03 01:45:14;;;;;;;2.85;1.20;;;14.30;99.90;;;;;;4991619;28;20039;-52
2022/07/03 01:47:41;;;;;;;2.83;1.10;;;14.30;99.90;;;;;;4979952;28;20030;-57
2022/07/03 01:50:11;;;;;;;2.45;1.30;;;14.20;99.90;;;;;;4986881;28;20138;-52
2022/07/03 01:52:40;;;;;;;3.08;1.10;;;14.20;99.90;;;;;;4987702;28;20490;-44
2022/07/03 01:55:08;;;;;;;1.60;0.90;;;14.10;99.90;;;;;;4991704;28;20023;-56
2022/07/03 01:57:45;;;;;;;3.17;1.10;;;14.10;99.90;;;;;;4991506;28;20034;-51
2022/07/03 02:00:17;;;;;;;3.25;1.13;;;14.10;99.90;;;;;;4991825;28;20033;-53
2022/07/03 02:02:52;;;;;;;2.05;1.05;;;14.10;99.90;;;;;;4991484;28;20031;-56
2022/07/03 02:05:42;;;;;;;3.72;1.33;;;14.00;99.90;;;;;;4991405;28;20389;-53
2022/07/03 02:08:26;;;;;;;2.70;1.00;;;14.00;99.90;;;;;;4991194;28;20023;-50
2022/07/03 02:11:08;;;;;;;3.05;1.17;;;14.00;99.90;;;;;;4991582;28;20093;-43
2022/07/03 02:13:39;;;;;;;2.50;1.10;;;14.00;99.90;;;;;;4975733;28;20034;-56
2022/07/03 02:16:09;;;;;;;2.92;1.05;;;13.90;99.90;;;;;;4971891;28;20023;-48
2022/07/03 02:18:37;;;;;;;4.53;1.20;;;13.90;99.90;;;;;;4971679;28;20104;-53
2022/07/03 02:21:16;;;;;;;2.55;1.20;;;13.90;99.90;;;;;;4971632;28;20501;-43
2022/07/03 02:24:00;;;;;;;;;;;13.80;99.90;;;;;;4972322;28;20483;-44
2022/07/03 02:26:39;;;;;;;2.88;0.98;;;13.80;99.90;;;;;;4971836;28;19914;-50
2022/07/03 02:29:07;;;;;;;2.20;1.02;;;13.80;99.90;;;;;;4971654;28;20178;-43
2022/07/03 02:31:46;;;;;;;3.00;1.10;;;13.70;99.90;;;;;;4971594;28;20025;-40
2022/07/03 02:34:16;;;;;;;;;;;13.70;99.90;;;;;;4971725;28;20368;-40
2022/07/03 02:36:46;;;;;;;7.90;1.42;;;13.70;99.90;;;;;;4971600;28;19914;-39
2022/07/03 02:39:33;;;;;;;5.82;1.02;;;13.60;99.90;;;;;;4971701;28;20566;-42
2022/07/03 02:42:02;;;;;;;2.58;1.30;;;13.60;99.90;;;;;;4971612;28;20023;-39
2022/07/03 02:44:40;;;;;;;3.33;1.20;;;13.50;99.90;;;;;;4954806;28;20080;-39
2022/07/03 02:47:14;;;;;;;4.20;1.00;;;13.50;99.90;;;;;;4971346;28;20023;-39
2022/07/03 02:49:58;;;;;;;3.15;1.05;;;13.40;99.90;;;;;;4971694;28;20031;-39
2022/07/03 02:53:03;;;;;;;2.05;1.00;;;13.40;99.90;;;;;;4962078;28;20094;-40
2022/07/03 02:55:50;;;;;;;3.60;1.05;;;13.40;99.90;;;;;;4975147;28;20031;-58
2022/07/03 02:58:28;;;;;;;4.70;1.20;;;13.40;99.90;;;;;;4975368;28;20030;-52
2022/07/03 03:00:56;;;;;;;3.08;1.17;;;13.30;99.90;;;;;;4961777;28;20031;-49
2022/07/03 03:03:28;;;;;;;2.58;1.27;;;13.30;99.90;;;;;;4974957;28;20037;-39
2022/07/03 03:05:59;;;;;;;3.38;1.15;;;13.30;99.90;;;;;;4974694;28;20081;-39
2022/07/03 03:08:47;;;;;;;2.20;1.20;;;13.30;99.90;;;;;;4974966;28;20389;-47
2022/07/03 03:11:43;;;;;;;3.25;1.30;;;13.20;99.90;;;;;;4962553;28;20026;-56
2022/07/03 03:14:19;;;;;;;2.58;1.20;;;13.20;99.90;;;;;;4974651;28;20081;-56
2022/07/03 03:16:51;;;;;;;3.30;1.30;;;13.20;99.90;;;;;;4974729;28;20069;-44
2022/07/03 03:19:24;;;;;;;3.45;1.20;;;13.10;99.90;;;;;;4974530;28;20536;-56
2022/07/03 03:22:01;;;;;;;2.97;1.17;;;13.10;99.90;;;;;;4973966;28;20026;-48
2022/07/03 03:24:28;;;;;;;4.15;1.20;;;13.10;99.90;;;;;;4974451;28;20394;-48
2022/07/03 03:26:54;;;;;;;2.88;1.10;;;13.10;99.90;;;;;;4974667;28;20019;-49
2022/07/03 03:29:20;;;;;;;3.40;1.50;;;13.00;99.90;;;;;;4974149;28;20051;-41
2022/07/03 03:31:45;;;;;;;2.50;1.20;;;13.00;99.90;;;;;;4974797;28;20058;-56
2022/07/03 03:34:12;;;;;;;2.58;1.10;;;13.00;99.90;;;;;;4974671;28;20026;-59
2022/07/03 03:36:37;;;;;;;1.80;1.00;;;12.90;99.90;;;;;;4974352;28;20021;-53
2022/07/03 03:39:03;;;;;;;3.22;1.30;;;12.80;99.90;;;;;;4974375;28;20026;-46
2022/07/03 03:41:29;;;;;;;2.33;1.00;;;12.80;99.90;;;;;;4974058;28;20066;-57
2022/07/03 03:43:55;;;;;;;2.80;1.10;;;12.80;99.90;;;;;;4974133;28;20031;-49
2022/07/03 03:46:21;;;;;;;3.00;1.20;;;12.80;99.90;;;;;;4974201;28;20115;-50
2022/07/03 03:48:48;;;;;;;2.70;1.08;;;12.70;99.90;;;;;;4974284;28;20023;-57
2022/07/03 03:51:13;;;;;;;3.45;1.17;;;12.70;99.90;;;;;;4973794;28;20037;-52
2022/07/03 03:53:40;;;;;;;2.67;1.38;;;12.60;99.90;;;;;;4973723;28;20027;-52
2022/07/03 03:56:07;;;;;;;2.22;1.27;;;12.60;99.90;;;;;;4974119;28;20054;-58
2022/07/03 03:58:36;;;;;;;3.30;1.20;;;12.60;99.90;;;;;;4973830;28;20031;-42
2022/07/03 04:01:04;;;;;;;2.53;1.35;;;12.50;99.90;;;;;;4973550;28;20073;-47
2022/07/03 04:03:31;;;;;;;2.78;1.20;;;12.40;99.90;;;;;;4973368;28;20030;-52
2022/07/03 04:05:56;;;;;;;4.68;1.40;;;12.30;99.90;;;;;;4973791;28;20057;-56
2022/07/03 04:08:24;;;;;;;1.95;1.30;;;12.30;99.90;;;;;;4973734;28;20402;-49
2022/07/03 04:10:49;;;;;;;2.17;1.30;;;12.30;99.90;;;;;;4973835;28;20106;-53
2022/07/03 04:13:16;;;;;;;3.22;1.30;;;12.40;99.90;;;;;;4973742;28;20154;-52
2022/07/03 04:15:42;;;;;;;2.03;1.20;;;12.30;99.90;;;;;;4973689;28;20050;-46
2022/07/03 04:18:08;;;;;;;2.10;1.20;;;12.40;99.90;;;;;;4973514;28;20544;-53
2022/07/03 04:20:34;;;;;;;2.50;1.20;;;12.30;99.90;;;;;;4973218;28;20026;-50
2022/07/03 04:23:00;;;;;;;1.88;1.20;;;12.30;99.90;;;;;;4956135;28;20029;-56
2022/07/03 04:25:26;;;;;;;2.78;1.40;;;12.30;99.90;;;;;;4973368;28;20474;-50
2022/07/03 04:27:52;;;;;;;1.85;1.20;;;12.30;99.90;;;;;;4973155;28;20046;-51
2022/07/03 04:30:18;;;;;;;2.22;1.20;;;12.30;99.90;;;;;;4973313;28;20038;-43
2022/07/03 04:32:43;;;;;;;2.53;1.20;;;12.30;99.90;;;;;;4973259;28;20023;-58
2022/07/03 04:35:09;;;;;;;2.67;1.30;;;12.20;99.90;;;;;;4973259;28;20027;-47
2022/07/03 04:37:35;;;;;;;1.95;1.00;;;12.20;99.90;;;;;;4955902;28;20461;-53
2022/07/03 04:40:01;;;;;;;1.75;1.08;;;12.20;99.90;;;;;;4955797;28;20483;-52
2022/07/03 04:42:26;;;;;;;2.05;1.27;;;12.20;99.90;;;;;;4973122;28;20078;-54
2022/07/03 04:44:52;;;;;;;3.65;1.35;;;12.30;99.90;;;;;;4973163;28;20042;-54
2022/07/03 04:47:18;;;;;;;2.08;1.20;;;12.30;99.90;;;;;;4973293;28;20482;-58
2022/07/03 04:49:44;;;;;;;3.53;1.40;;;12.40;99.90;;;;;;4972667;28;20034;-55
2022/07/03 04:52:10;;;;;;;3.97;1.40;;;12.40;99.90;;;;;;4973086;28;20027;-49
2022/07/03 04:54:36;;;;;;;1.80;1.10;;;12.50;99.90;;;;;;4973038;28;20099;-60
2022/07/03 04:57:03;;;;;;;1.88;1.00;;;12.50;99.90;;;;;;4972815;28;20098;-53
2022/07/03 04:59:29;;;;;;;2.00;1.15;;;12.60;99.90;;;;;;4972905;28;20505;-48
2022/07/03 05:01:54;;;;;;;3.70;1.35;;;12.90;99.90;;;;;;4972908;28;20030;-54
2022/07/03 05:04:20;;;;;;;2.63;1.30;;;13.50;99.90;;;;;;4972622;28;20466;-51
2022/07/03 05:06:46;;;;;;;2.50;1.45;;;14.20;99.90;;;;;;4972626;28;20478;-60
2022/07/03 05:09:12;;;;;;;2.85;1.10;;;14.90;99.90;;;;;;4972618;28;20037;-51
2022/07/03 05:11:37;;;;;;;2.42;1.38;;;15.60;98.90;;;;;;4972630;28;20430;-56
2022/07/03 05:14:04;;;;;;;2.42;1.10;;;16.00;97.00;;;;;;4972229;28;20075;-50
2022/07/03 05:16:30;;;;;;;2.00;1.23;;;16.20;95.90;;;;;;4972943;28;20026;-56
2022/07/03 05:18:56;;;;;;;2.80;1.15;;;15.80;96.20;;;;;;4972546;28;20027;-54
2022/07/03 05:21:22;;;;;;;3.65;1.38;;;15.60;97.20;;;;;;4972298;28;20034;-57
2022/07/03 05:23:47;;;;;;;2.00;1.10;;;15.20;97.90;;;;;;4972459;28;20070;-51
2022/07/03 05:26:13;;;;;;;3.08;1.20;;;14.90;98.50;;;;;;4972413;28;20093;-59
2022/07/03 05:28:39;;;;;;;3.88;1.35;;;14.60;99.20;;;;;;4955157;28;20046;-52
2022/07/03 05:31:05;;;;;;;3.58;1.20;;;14.40;99.70;;;;;;4954990;28;20031;-56
2022/07/03 05:33:30;;;;;;;3.13;1.20;;;14.30;99.90;;;;;;4972365;28;20478;-40
2022/07/03 05:35:57;;;;;;;4.07;1.40;;;14.30;99.90;;;;;;4972524;28;20038;-55
2022/07/03 05:41:07;;;;;;;3.08;1.40;;;14.40;99.90;;;;;;4972255;28;20037;-50
2022/07/03 05:43:33;;;;;;;4.18;1.38;;;14.50;99.90;;;;;;4972179;28;20019;-45
2022/07/03 05:45:59;;;;;;;4.40;1.27;;;14.60;99.90;;;;;;4972351;28;20027;-58
2022/07/03 05:48:25;;;;;;;4.70;1.10;;;14.80;99.70;;;;;;4972137;28;20394;-54
2022/07/03 05:50:51;;;;;;;2.95;1.30;;;15.00;99.80;;;;;;4972006;28;20023;-52
2022/07/03 05:53:16;;;;;;;3.00;1.17;;;15.50;99.20;;;;;;4972099;28;20027;-55
2022/07/03 05:55:42;;;;;;;2.38;0.90;;;16.00;98.00;;;;;;4972320;28;20462;-58
2022/07/03 05:58:08;;;;;;;2.28;1.35;;;16.60;96.70;;;;;;4971948;28;20364;-48
2022/07/03 06:00:33;;;;;;;2.13;0.77;;;17.20;95.70;;;;;;4972214;28;20018;-57
2022/07/03 06:02:59;;;;;;;2.38;0.93;;;17.90;94.70;;;;;;4972087;28;20029;-48
2022/07/03 06:05:26;;;;;;;2.00;0.70;;;18.80;94.30;;;;;;4971913;28;20038;-50
2022/07/03 06:07:52;;;;;;;2.10;0.73;;;19.80;91.20;;;;;;4972043;28;20093;-54
2022/07/03 06:10:17;;;;;;;2.70;0.88;;;20.70;90.30;;;;;;4972217;28;20027;-52
2022/07/03 06:12:43;;;;;;;2.13;0.70;;;21.30;84.50;;;;;;4972277;28;20038;-44
2022/07/03 06:15:09;;;;;;;1.48;0.60;;;21.40;84.60;;;;;;4971941;28;20668;-57
2022/07/03 06:17:38;;;;;;;2.28;0.70;;;21.90;80.40;;;;;;4972022;28;20038;-40
2022/07/03 06:20:06;;;;;;;2.55;0.60;;;22.40;82.00;;;;;;4971683;28;20698;-56
2022/07/03 06:22:32;;;;;;;2.53;0.70;;;23.00;77.70;;;;;;4971963;28;20034;-53
2022/07/03 06:24:58;;;;;;;2.63;0.60;;;23.40;72.30;;;;;;4972431;28;20395;-50
2022/07/03 06:27:23;;;;;;;4.15;0.77;;;23.60;70.80;;;;;;4975498;28;20034;-48
2022/07/03 06:29:49;;;;;;;2.78;0.50;;;23.90;73.30;;;;;;4975665;28;20035;-58
2022/07/03 06:32:16;;;;;;;2.55;0.63;;;24.20;70.60;;;;;;4975728;28;20023;-59
2022/07/03 06:34:42;;;;;;;1.98;0.57;;;24.70;72.00;;;;;;4975460;28;20042;-53
2022/07/03 06:37:12;;;;;;;2.80;0.77;;;25.10;68.20;;;;;;4975578;28;20094;-41
2022/07/03 06:39:38;;;;;;;2.75;0.70;;;25.00;62.90;;;;;;4975383;28;20433;-44
2022/07/03 06:42:04;;;;;;;3.45;0.65;;;24.30;63.30;;;;;;4975700;28;20030;-53
2022/07/03 06:44:30;;;;;;;3.58;0.68;;;23.60;66.70;;;;;;4975163;28;20406;-51
2022/07/03 06:46:56;;;;;;;3.38;0.80;;;22.80;68.60;;;;;;4975413;28;20019;-43
2022/07/03 06:49:22;;;;;;;4.35;0.93;;;22.00;69.30;;;;;;4975316;28;20041;-51
2022/07/03 06:51:48;;;;;;;3.55;0.90;;;21.50;75.10;;;;;;4975018;28;20021;-57
2022/07/03 06:54:14;;;;;;;0.60;0.47;;;20.80;79.00;;;;;;4975254;28;20030;-46
2022/07/03 06:56:39;;;;;;;3.47;0.60;;;20.40;80.60;;;;;;4975101;28;20027;-51
2022/07/03 06:59:05;;;;;;;2.95;0.80;;;20.00;83.70;;;;;;4975251;28;20094;-57
2022/07/03 07:01:31;;;;;;;4.38;0.70;;;19.70;84.70;;;;;;4975084;28;20030;-46
2022/07/03 07:03:57;;;;;;;5.43;0.60;;;19.40;84.40;;;;;;4974958;28;20030;-58
2022/07/03 07:06:22;;;;;;;4.07;0.70;;;19.10;85.70;;;;;;4975252;28;20497;-58
2022/07/03 07:08:48;;;;;;;3.92;0.65;;;19.00;89.40;;;;;;4975059;28;20442;-51
2022/07/03 07:11:14;;;;;;;4.60;0.73;;;19.00;86.60;;;;;;4974973;28;20031;-54
2022/07/03 07:13:40;;;;;;;4.85;0.90;;;19.10;87.80;;;;;;4974819;28;20022;-51
2022/07/03 07:16:06;;;;;;;3.33;0.88;;;19.20;86.90;;;;;;4974909;28;20086;-57
2022/07/03 07:18:32;;;;;;;2.65;0.60;;;19.20;87.90;;;;;;4974591;28;20059;-46
2022/07/03 07:20:57;;;;;;;2.58;0.70;;;19.30;88.50;;;;;;4974333;28;20031;-49
2022/07/03 07:23:23;;;;;;;2.38;0.80;;;19.30;89.00;;;;;;4974367;28;20023;-48
2022/07/03 07:25:49;;;;;;;4.60;1.02;;;19.30;85.50;;;;;;4973688;28;20027;-46
2022/07/03 07:28:14;;;;;;;3.15;0.70;;;19.40;88.20;;;;;;4972621;28;20055;-49
2022/07/03 07:30:40;;;;;;;2.90;0.73;;;19.70;87.30;;;;;;4970585;28;20027;-53
2022/07/03 07:33:07;;;;;;;4.40;0.55;;;19.80;86.60;;;;;;4968375;28;20031;-50
2022/07/03 07:35:32;;;;;;;4.90;0.80;;;19.90;86.00;;;;;;4973658;28;20023;-49
2022/07/03 07:37:58;;;;;;;2.67;0.70;;;20.00;84.10;;;;;;4974132;28;20357;-45
2022/07/03 07:40:24;;;;;;;2.75;0.85;;;19.90;85.80;;;;;;4971133;28;20666;-48
2022/07/03 07:42:49;;;;;;;3.28;0.75;;;19.90;85.40;;;;;;4969196;28;20023;-49
2022/07/03 07:45:15;;;;;;;3.53;0.90;;;19.80;84.60;;;;;;4971896;28;20039;-55
2022/07/03 07:47:41;;;;;;;0.73;0.50;;;19.70;85.60;;;;;;4973417;28;20102;-57
2022/07/03 07:50:07;;;;;;;5.57;1.05;;;19.60;88.10;;;;;;4956077;28;20045;-49
2022/07/03 07:52:33;;;;;;;3.95;0.82;;;19.40;84.40;;;;;;4973359;28;20023;-56
2022/07/03 07:54:58;;;;;;;3.08;0.73;;;19.40;87.20;;;;;;4974065;28;20027;-54
2022/07/03 07:57:24;;;;;;;3.20;0.85;;;19.30;86.10;;;;;;4973862;28;20453;-52
2022/07/03 07:59:49;;;;;;;2.90;0.68;;;19.30;87.00;;;;;;4973996;28;20030;-60
2022/07/03 08:07:43;;;;;;;4.95;0.85;;;19.10;86.40;;;;;;4972515;28;20038;-41
2022/07/03 08:10:09;;;;;;;3.72;1.00;;;19.10;88.10;;;;;;4973118;28;20126;-46
2022/07/03 08:12:35;;;;;;;5.07;1.23;;;19.20;89.20;;;;;;4972365;28;20058;-49
2022/07/03 08:15:00;;;;;;;2.47;0.90;;;19.30;89.90;;;;;;4973204;28;20023;-52
2022/07/03 08:17:26;;;;;;;4.15;0.75;;;19.30;86.90;;;;;;4973082;28;20106;-47
2022/07/03 08:19:52;;;;;;;2.20;0.60;;;19.50;89.80;;;;;;4973108;28;20069;-52
2022/07/03 08:22:17;;;;;;;3.22;0.70;;;19.70;88.40;;;;;;4972990;28;20033;-58
2022/07/03 08:24:43;;;;;;;3.70;0.70;;;19.80;84.50;;;;;;4972611;28;20057;-48
2022/07/03 08:27:08;;;;;;;2.67;0.60;;;19.80;84.20;;;;;;4972810;28;20023;-44
2022/07/03 08:29:34;;;;;;;1.35;0.45;;;19.90;85.70;;;;;;4972574;28;20042;-51
2022/07/03 08:32:00;;;;;;;3.42;0.90;;;20.00;87.60;;;;;;4972466;28;20473;-53
2022/07/03 08:34:26;;;;;;;1.88;0.60;;;20.10;85.30;;;;;;4972358;28;20042;-55
2022/07/03 08:36:52;;;;;;;2.13;0.50;;;20.10;85.80;;;;;;4972990;28;20438;-50
2022/07/03 08:39:17;;;;;;;1.00;0.38;;;20.20;86.00;;;;;;4972239;28;20346;-55
2022/07/03 08:41:43;;;;;;;1.83;0.52;;;20.20;86.30;;;;;;4972195;28;20643;-48
2022/07/03 08:44:12;;;;;;;3.40;0.60;;;20.00;84.70;;;;;;4972741;28;20041;-50
2022/07/03 08:46:39;;;;;;;3.53;0.47;;;20.10;84.20;;;;;;4972600;28;20030;-42
2022/07/03 08:49:07;;;;;;;4.43;0.70;;;20.20;86.40;;;;;;4971868;28;20338;-49
2022/07/03 08:51:34;;;;;;;5.97;0.75;;;20.50;85.10;;;;;;4972377;28;20019;-53
2022/07/03 08:54:01;;;;;;;3.42;0.60;;;20.90;84.40;;;;;;4972539;28;20035;-49
2022/07/03 08:56:27;;;;;;;3.30;0.55;;;21.30;84.70;;;;;;4971775;28;20035;-43
2022/07/03 08:58:56;;;;;;;1.15;0.40;;;21.60;78.30;;;;;;4972168;28;20025;-52
2022/07/03 09:01:21;;;;;;;0.75;0.40;;;21.90;80.30;;;;;;4972672;28;20022;-51
2022/07/03 09:03:48;;;;;;;1.98;0.45;;;22.30;79.40;;;;;;4972094;28;20046;-42
2022/07/03 09:06:13;;;;;;;4.03;0.70;;;22.50;82.50;;;;;;4972119;28;20023;-42
2022/07/03 09:08:40;;;;;;;1.95;0.68;;;22.80;82.90;;;;;;4971719;28;20131;-55
2022/07/03 09:11:07;;;;;;;3.47;0.68;;;23.10;78.00;;;;;;4971659;28;20027;-44
2022/07/03 09:13:33;;;;;;;2.55;0.50;;;23.10;72.50;;;;;;4971806;28;20031;-42
2022/07/03 09:15:59;;;;;;;1.90;0.70;;;23.00;73.70;;;;;;4972058;28;20106;-51
2022/07/03 09:18:42;;;;;;;1.08;0.40;;;23.50;74.30;;;;;;4972063;28;20053;-56
2022/07/03 09:21:10;;;;;;;1.95;0.45;;;23.70;71.40;;;;;;4970986;28;20978;-42
2022/07/03 09:23:38;;;;;;;3.53;0.65;;;23.70;70.50;;;;;;4967204;28;20033;-45
2022/07/03 09:26:04;;;;;;;2.50;0.60;;;23.60;71.00;;;;;;4969892;28;20517;-45
2022/07/03 09:28:45;;;;;;;1.15;0.40;;;23.40;72.10;;;;;;4970436;28;20049;-49
2022/07/03 09:31:15;;;;;;;1.27;0.45;;;23.80;72.60;;;;;;4971067;28;20039;-46
2022/07/03 09:34:01;;;;;;;1.52;0.50;;;24.00;70.50;;;;;;4969904;28;20022;-50
2022/07/03 09:36:47;;;;;;;1.58;0.45;;;23.90;68.90;;;;;;4971858;28;20125;-52
2022/07/03 09:39:26;;;;;;;1.05;0.40;;;23.60;67.10;;;;;;4967794;28;20102;-52
2022/07/03 09:41:52;;;;;;;;;;;23.40;68.40;;;;;;4971265;28;20054;-49
2022/07/03 09:44:30;;;;;;;2.22;0.40;;;23.80;72.10;;;;;;4971696;28;19949;-53
2022/07/03 09:47:06;;;;;;;1.50;0.55;;;24.30;66.30;;;;;;4971773;28;20030;-49
2022/07/03 09:49:47;;;;;;;2.88;0.57;;;24.40;66.20;;;;;;4971858;28;20026;-46
2022/07/03 09:52:28;;;;;;;2.42;0.50;;;23.90;65.70;;;;;;4963992;28;20114;-48
2022/07/03 09:54:59;;;;;;;1.20;0.50;;;23.80;67.20;;;;;;4971005;28;20105;-50
2022/07/03 09:57:27;;;;;;;3.10;1.10;;;23.70;69.60;;;;;;4967211;28;20026;-40
2022/07/03 10:00:11;;;;;;;2.05;0.60;;;23.70;67.50;;;;;;4971018;28;20030;-53
2022/07/03 10:02:52;;;;;;;4.18;0.70;;;23.70;69.70;;;;;;4966658;28;20453;-53
2022/07/03 10:05:18;;;;;;;1.05;0.47;;;23.90;67.80;;;;;;4970504;28;20042;-47
2022/07/03 10:07:51;;;;;;;0.57;0.40;;;24.20;65.80;;;;;;4972039;28;20023;-48
2022/07/03 10:10:21;;;;;;;2.92;0.60;;;23.90;67.50;;;;;;4973229;28;20112;-55
2022/07/03 10:12:52;;;;;;;1.60;0.52;;;23.60;64.70;;;;;;4971584;28;21136;-42
2022/07/03 10:15:19;;;;;;;1.65;0.50;;;23.40;67.50;;;;;;4958070;28;20034;-39
2022/07/03 10:17:56;;;;;;;2.42;0.80;;;23.30;68.10;;;;;;4971046;28;20029;-41
2022/07/03 10:20:34;;;;;;;2.92;1.10;;;23.40;68.60;;;;;;4972403;28;20512;-41
2022/07/03 10:23:00;;;;;;;2.17;0.40;;;24.00;68.00;;;;;;4973757;28;20489;-43
2022/07/03 10:25:26;;;;;;;2.53;0.75;;;24.60;68.00;;;;;;4973164;28;20065;-41
2022/07/03 10:27:52;;;;;;;1.63;0.70;;;25.30;67.70;;;;;;4974445;28;20027;-45
2022/07/03 10:30:19;;;;;;;2.35;0.70;;;26.20;63.60;;;;;;4975486;28;20443;-56
2022/07/03 10:32:47;;;;;;;2.03;0.90;;;26.80;60.00;;;;;;4975278;28;20466;-48
2022/07/03 10:35:15;;;;;;;1.92;0.70;;;26.60;58.10;;;;;;4974572;28;20103;-52
2022/07/03 10:38:25;;;;;;;0.75;0.32;;;26.00;58.10;;;;;;4975316;28;20486;-39
2022/07/03 10:46:57;;;;;;;3.20;0.85;;;23.90;64.30;;;;;;4960328;28;20026;-47
2022/07/03 10:49:23;;;;;;;2.35;0.70;;;23.60;63.50;;;;;;4973219;28;20022;-56
2022/07/03 10:51:54;;;;;;;2.55;0.60;;;23.80;67.20;;;;;;4972496;28;20122;-52
2022/07/03 10:54:27;;;;;;;5.47;3.10;;;24.10;65.80;;;;;;4965599;28;20089;-54
2022/07/03 10:56:58;;;;;;;4.80;2.20;;;24.50;67.40;;;;;;4970908;28;20026;-58
2022/07/03 10:59:36;;;;;;;3.38;1.02;;;24.60;68.20;;;;;;4968066;28;20037;-53
2022/07/03 11:02:43;;;;;;;4.50;1.10;;;24.10;67.40;;;;;;4971985;28;20019;-55
2022/07/03 11:05:17;;;;;;;3.72;1.00;;;23.50;67.30;;;;;;4938522;28;20047;-52
2022/07/03 11:08:02;;;;;;;3.85;0.93;;;22.90;71.20;;;;;;4973568;28;20033;-41
2022/07/03 11:10:28;;;;;;;3.95;1.05;;;22.60;74.60;;;;;;4972797;28;20114;-42
2022/07/03 11:13:00;;;;;;;3.40;0.90;;;22.20;72.40;;;;;;4970184;28;20089;-54
2022/07/03 11:15:36;;;;;;;4.55;1.17;;;21.70;74.80;;;;;;4973083;28;20402;-50
2022/07/03 11:18:14;;;;;;;2.67;0.90;;;21.10;76.90;;;;;;4973098;28;20054;-42
2022/07/03 11:20:42;;;;;;;3.90;0.98;;;20.60;81.60;;;;;;4970769;28;20412;-44
2022/07/03 11:23:18;;;;;;;4.10;1.20;;;20.50;82.40;;;;;;4970109;28;20058;-45
2022/07/03 11:25:44;;;;;;;2.67;0.77;;;20.30;84.90;;;;;;4973018;28;20045;-40
2022/07/03 11:28:28;;;;;;;2.58;0.70;;;20.30;83.60;;;;;;4968006;28;20047;-39
2022/07/03 11:31:16;;;;;;;2.60;0.70;;;20.40;83.30;;;;;;4971133;28;20117;-50
2022/07/03 11:33:51;;;;;;;3.45;0.98;;;20.40;84.40;;;;;;4965741;28;20035;-51
2022/07/03 11:36:17;;;;;;;3.80;0.80;;;20.40;83.00;;;;;;4973216;28;20382;-53
2022/07/03 11:38:43;;;;;;;2.08;0.73;;;20.10;84.80;;;;;;4972385;28;20427;-48
2022/07/03 11:41:10;;;;;;;1.95;0.80;;;20.00;89.20;;;;;;4969625;28;20023;-43
2022/07/03 11:43:36;;;;;;;3.45;0.90;;;20.60;91.40;;;;;;4970063;28;20029;-51
2022/07/03 11:46:03;;;;;;;3.85;0.90;;;21.60;81.50;;;;;;4968758;28;20023;-45
2022/07/03 11:48:29;;;;;;;4.05;0.88;;;21.90;80.20;;;;;;4973416;28;20114;-46
2022/07/03 11:51:03;;;;;;;3.45;0.90;;;21.80;79.60;;;;;;4969558;28;20394;-53
2022/07/03 11:53:33;;;;;;;6.35;1.08;;;21.50;79.30;;;;;;4971891;28;20050;-42
2022/07/03 11:56:11;;;;;;;5.38;1.15;;;21.40;79.80;;;;;;4969839;28;20033;-46
2022/07/03 11:58:48;;;;;;;4.45;0.98;;;21.30;81.10;;;;;;4949687;28;20382;-47
2022/07/03 12:01:26;;;;;;;3.58;1.40;;;21.30;82.20;;;;;;4966613;28;20680;-48
2022/07/03 12:04:14;;;;;;;2.80;0.75;;;21.20;83.80;;;;;;4972585;28;20035;-45
2022/07/03 12:06:49;;;;;;;4.57;1.50;;;21.10;83.10;;;;;;4970065;28;20038;-42
2022/07/03 12:09:20;;;;;;;7.35;1.67;;;21.00;83.10;;;;;;4973176;28;20100;-45
2022/07/03 12:12:02;;;;;;;6.70;1.48;;;21.00;85.40;;;;;;4972199;28;20019;-45
2022/07/03 12:14:44;;;;;;;4.20;1.02;;;21.00;83.80;;;;;;4971768;28;20113;-51
2022/07/03 12:17:24;;;;;;;4.22;1.30;;;20.80;84.60;;;;;;4971418;28;20033;-50
2022/07/03 12:19:55;;;;;;;4.13;0.90;;;21.10;88.30;;;;;;4973001;28;20026;-55
2022/07/03 12:22:34;;;;;;;2.58;0.90;;;22.10;83.90;;;;;;4966635;28;20019;-57
2022/07/03 12:25:04;;;;;;;4.47;0.95;;;23.30;84.70;;;;;;4972179;28;20498;-54
2022/07/03 12:27:32;;;;;;;4.05;0.75;;;24.10;75.40;;;;;;4971461;28;20541;-53
2022/07/03 12:29:58;;;;;;;4.63;1.17;;;24.30;72.00;;;;;;4973229;28;20043;-51
2022/07/03 12:32:25;;;;;;;5.50;0.90;;;24.50;76.30;;;;;;4968769;28;20050;-45
2022/07/03 12:34:51;;;;;;;2.83;0.73;;;24.60;72.00;;;;;;4967036;28;20030;-44
2022/07/03 12:37:30;;;;;;;5.57;0.80;;;24.10;72.00;;;;;;4969651;28;20034;-49
2022/07/03 12:39:57;;;;;;;6.65;0.98;;;24.00;72.30;;;;;;4969564;28;20054;-54
2022/07/03 12:42:23;;;;;;;2.47;0.65;;;23.80;71.60;;;;;;4970821;28;20034;-49
2022/07/03 12:45:00;;;;;;;2.63;0.93;;;23.50;75.80;;;;;;4970398;28;20109;-53
2022/07/03 12:47:27;;;;;;;2.03;0.60;;;23.00;72.90;;;;;;4970795;28;20018;-51
2022/07/03 12:50:00;;;;;;;5.75;0.95;;;22.60;75.20;;;;;;4965829;28;20050;-53
2022/07/03 12:52:27;;;;;;;2.83;0.75;;;22.20;75.00;;;;;;4968254;28;20105;-53
2022/07/03 12:54:54;;;;;;;3.75;0.80;;;22.00;78.20;;;;;;4968011;28;20038;-56
2022/07/03 13:00:07;;;;;;;2.47;0.90;;;21.70;79.70;;;;;;4968809;28;20502;-55
2022/07/03 13:02:33;;;;;;;7.28;2.25;;;21.50;81.80;;;;;;4971698;28;20489;-50
2022/07/03 13:05:00;;;;;;;3.50;0.98;;;21.50;81.30;;;;;;4970862;28;20046;-51
2022/07/03 13:07:31;;;;;;;3.35;0.85;;;21.10;81.00;;;;;;4971862;28;20019;-50
2022/07/03 13:10:06;;;;;;;4.82;1.10;;;21.00;81.70;;;;;;4971985;28;20113;-50
2022/07/03 13:12:31;;;;;;;8.55;1.77;;;20.90;83.80;;;;;;4954579;28;20019;-50
2022/07/03 13:15:01;;;;;;;5.63;1.13;;;20.90;82.80;;;;;;4970278;28;20033;-49
2022/07/03 13:17:50;;;;;;;4.88;0.77;;;21.20;85.80;;;;;;4969108;28;20434;-59
2022/07/03 13:20:16;;;;;;;5.45;1.15;;;21.50;82.10;;;;;;4971111;28;20533;-54